sensor_id;sensor_type;location;lat;lon;timestamp;P1;durP1;ratioP1;P2;durP2;ratioP2
12222;SDS011;6174;49.058;8.524;2023-05-10T05:01:41;3.30;;;3.00;;
12222;SDS011;6174;49.058;8.524;2023-05-10T05:04:08;2.90;;;2.70;;
12222;SDS011;6174;49.058;8.524;2023-05-10T05:06:35;3.30;;;2.90;;
12222;SDS011;6174;49.058;8.524;2023-05-10T05:09:01;3.13;;;2.87;;
12222;SDS011;6174;49.058;8.524;2023-05-10T05:11:29;3.20;;;2.90;;
12222;SDS011;6174;49.058;8.524;2023-05-10T05:13:55;3.23;;;3.03;;
12222;SDS011;6174;49.058;8.524;2023-05-10T05:16:23;3.73;;;3.00;;
12222;SDS011;6174;49.058;8.524;2023-05-10T05:18:52;3.20;;;2.80;;
12222;SDS011;6174;49.058;8.524;2023-05-10T05:21:18;3.70;;;3.40;;
12222;SDS011;6174;49.058;8.524;2023-05-10T05:23:46;4.30;;;3.70;;
12222;SDS011;6174;49.058;8.524;2023-05-10T05:26:13;3.87;;;3.47;;
12222;SDS011;6174;49.058;8.524;2023-05-10T05:28:39;6.03;;;4.20;;
12222;SDS011;6174;49.058;8.524;2023-05-10T05:31:06;3.97;;;3.57;;
12222;SDS011;6174;49.058;8.524;2023-05-10T05:33:34;5.00;;;3.93;;
12222;SDS011;6174;49.058;8.524;2023-05-10T05:36:02;4.50;;;3.60;;
12222;SDS011;6174;49.058;8.524;2023-05-10T05:38:29;3.90;;;3.60;;
12222;SDS011;6174;49.058;8.524;2023-05-10T05:40:56;3.60;;;3.30;;
12222;SDS011;6174;49.058;8.524;2023-05-10T05:43:23;3.77;;;3.37;;
12222;SDS011;6174;49.058;8.524;2023-05-10T05:45:51;3.43;;;3.20;;
12222;SDS011;6174;49.058;8.524;2023-05-10T05:48:18;4.83;;;3.43;;
12222;SDS011;6174;49.058;8.524;2023-05-10T05:50:45;3.50;;;3.20;;
12222;SDS011;6174;49.058;8.524;2023-05-10T05:53:13;3.20;;;3.00;;
12222;SDS011;6174;49.058;8.524;2023-05-10T05:55:39;5.13;;;3.47;;
12222;SDS011;6174;49.058;8.524;2023-05-10T05:58:06;3.60;;;3.30;;
12222;SDS011;6174;49.058;8.524;2023-05-10T06:00:33;5.90;;;3.60;;
12222;SDS011;6174;49.058;8.524;2023-05-10T06:03:00;4.00;;;3.23;;
12222;SDS011;6174;49.058;8.524;2023-05-10T06:05:27;3.30;;;2.70;;
12222;SDS011;6174;49.058;8.524;2023-05-10T06:07:53;2.93;;;2.70;;
12222;SDS011;6174;49.058;8.524;2023-05-10T06:10:21;3.83;;;2.77;;
12222;SDS011;6174;49.058;8.524;2023-05-10T06:12:50;3.20;;;2.90;;
12222;SDS011;6174;49.058;8.524;2023-05-10T06:15:17;2.70;;;2.50;;
12222;SDS011;6174;49.058;8.524;2023-05-10T06:17:44;3.33;;;2.50;;
12222;SDS011;6174;49.058;8.524;2023-05-10T06:20:12;2.80;;;2.50;;
12222;SDS011;6174;49.058;8.524;2023-05-10T06:22:39;2.20;;;2.10;;
12222;SDS011;6174;49.058;8.524;2023-05-10T06:25:06;3.50;;;2.37;;
12222;SDS011;6174;49.058;8.524;2023-05-10T06:27:35;3.50;;;2.80;;
12222;SDS011;6174;49.058;8.524;2023-05-10T06:30:02;2.30;;;2.10;;
12222;SDS011;6174;49.058;8.524;2023-05-10T06:32:30;2.43;;;2.23;;
12222;SDS011;6174;49.058;8.524;2023-05-10T06:34:57;2.43;;;2.27;;
12222;SDS011;6174;49.058;8.524;2023-05-10T06:37:24;3.47;;;2.20;;
12222;SDS011;6174;49.058;8.524;2023-05-10T06:39:50;3.30;;;1.97;;
12222;SDS011;6174;49.058;8.524;2023-05-10T06:42:17;1.97;;;1.73;;
12222;SDS011;6174;49.058;8.524;2023-05-10T06:44:45;2.23;;;2.03;;
12222;SDS011;6174;49.058;8.524;2023-05-10T06:47:12;2.40;;;1.80;;
12222;SDS011;6174;49.058;8.524;2023-05-10T06:49:39;2.00;;;1.90;;
12222;SDS011;6174;49.058;8.524;2023-05-10T06:52:05;2.07;;;1.80;;
12222;SDS011;6174;49.058;8.524;2023-05-10T06:54:32;2.03;;;1.83;;
12222;SDS011;6174;49.058;8.524;2023-05-10T06:56:59;1.67;;;1.57;;
12222;SDS011;6174;49.058;8.524;2023-05-10T06:59:27;1.80;;;1.70;;
12222;SDS011;6174;49.058;8.524;2023-05-10T07:01:56;1.50;;;1.40;;
12222;SDS011;6174;49.058;8.524;2023-05-10T07:04:22;1.87;;;1.57;;
12222;SDS011;6174;49.058;8.524;2023-05-10T07:06:49;1.83;;;1.40;;
12222;SDS011;6174;49.058;8.524;2023-05-10T07:09:16;1.60;;;1.50;;
12222;SDS011;6174;49.058;8.524;2023-05-10T07:11:43;2.30;;;1.60;;
12222;SDS011;6174;49.058;8.524;2023-05-10T07:14:10;2.77;;;1.50;;
12222;SDS011;6174;49.058;8.524;2023-05-10T07:16:36;5.73;;;1.80;;
12222;SDS011;6174;49.058;8.524;2023-05-10T07:19:05;2.93;;;1.63;;
12222;SDS011;6174;49.058;8.524;2023-05-10T07:21:32;1.60;;;1.50;;
12222;SDS011;6174;49.058;8.524;2023-05-10T07:24:00;1.60;;;1.50;;
12222;SDS011;6174;49.058;8.524;2023-05-10T07:26:26;1.40;;;1.30;;
12222;SDS011;6174;49.058;8.524;2023-05-10T07:28:53;1.60;;;1.50;;
12222;SDS011;6174;49.058;8.524;2023-05-10T07:31:20;1.60;;;1.40;;
12222;SDS011;6174;49.058;8.524;2023-05-10T07:33:47;1.83;;;1.47;;
12222;SDS011;6174;49.058;8.524;2023-05-10T07:36:15;1.50;;;1.40;;
12222;SDS011;6174;49.058;8.524;2023-05-10T07:38:42;1.73;;;1.30;;
12222;SDS011;6174;49.058;8.524;2023-05-10T07:41:09;1.60;;;1.50;;
12222;SDS011;6174;49.058;8.524;2023-05-10T07:43:37;1.90;;;1.40;;
12222;SDS011;6174;49.058;8.524;2023-05-10T07:46:04;2.87;;;1.40;;
12222;SDS011;6174;49.058;8.524;2023-05-10T07:48:31;1.50;;;1.40;;
12222;SDS011;6174;49.058;8.524;2023-05-10T07:50:58;1.40;;;1.30;;
12222;SDS011;6174;49.058;8.524;2023-05-10T07:53:26;1.30;;;1.20;;
12222;SDS011;6174;49.058;8.524;2023-05-10T07:55:53;1.90;;;1.20;;
12222;SDS011;6174;49.058;8.524;2023-05-10T07:58:24;1.63;;;1.00;;
12222;SDS011;6174;49.058;8.524;2023-05-10T08:00:51;1.13;;;1.10;;
12222;SDS011;6174;49.058;8.524;2023-05-10T08:03:18;3.03;;;1.50;;
12222;SDS011;6174;49.058;8.524;2023-05-10T08:05:44;1.47;;;1.37;;
12222;SDS011;6174;49.058;8.524;2023-05-10T08:08:11;1.80;;;1.40;;
12222;SDS011;6174;49.058;8.524;2023-05-10T08:10:39;1.30;;;1.23;;
12222;SDS011;6174;49.058;8.524;2023-05-10T08:13:06;1.30;;;1.20;;
12222;SDS011;6174;49.058;8.524;2023-05-10T08:15:33;1.33;;;1.23;;
12222;SDS011;6174;49.058;8.524;2023-05-10T08:17:59;1.50;;;1.50;;
12222;SDS011;6174;49.058;8.524;2023-05-10T08:20:26;1.37;;;1.20;;
12222;SDS011;6174;49.058;8.524;2023-05-10T08:22:53;1.00;;;1.00;;
12222;SDS011;6174;49.058;8.524;2023-05-10T08:25:20;1.30;;;1.20;;
12222;SDS011;6174;49.058;8.524;2023-05-10T08:27:48;1.43;;;1.00;;
12222;SDS011;6174;49.058;8.524;2023-05-10T08:30:14;1.37;;;1.27;;
12222;SDS011;6174;49.058;8.524;2023-05-10T08:32:41;2.23;;;1.20;;
12222;SDS011;6174;49.058;8.524;2023-05-10T08:35:08;1.70;;;1.10;;
12222;SDS011;6174;49.058;8.524;2023-05-10T08:37:35;1.93;;;1.10;;
12222;SDS011;6174;49.058;8.524;2023-05-10T08:40:01;1.57;;;1.17;;
12222;SDS011;6174;49.058;8.524;2023-05-10T08:42:30;1.50;;;1.00;;
12222;SDS011;6174;49.058;8.524;2023-05-10T08:45:00;1.40;;;1.00;;
12222;SDS011;6174;49.058;8.524;2023-05-10T08:47:28;2.83;;;1.20;;
12222;SDS011;6174;49.058;8.524;2023-05-10T08:49:55;1.27;;;1.20;;
12222;SDS011;6174;49.058;8.524;2023-05-10T08:52:24;1.10;;;1.10;;
12222;SDS011;6174;49.058;8.524;2023-05-10T08:54:54;1.10;;;1.10;;
12222;SDS011;6174;49.058;8.524;2023-05-10T08:57:21;1.20;;;1.10;;
12222;SDS011;6174;49.058;8.524;2023-05-10T08:59:48;1.50;;;1.40;;
12222;SDS011;6174;49.058;8.524;2023-05-10T09:02:16;1.87;;;1.20;;
12222;SDS011;6174;49.058;8.524;2023-05-10T09:04:44;1.00;;;1.00;;
12222;SDS011;6174;49.058;8.524;2023-05-10T09:07:11;1.43;;;1.23;;
12222;SDS011;6174;49.058;8.524;2023-05-10T09:09:37;2.07;;;1.27;;
12222;SDS011;6174;49.058;8.524;2023-05-10T09:12:04;2.47;;;1.13;;
12222;SDS011;6174;49.058;8.524;2023-05-10T09:14:32;1.30;;;1.20;;
12222;SDS011;6174;49.058;8.524;2023-05-10T09:17:01;1.23;;;1.17;;
12222;SDS011;6174;49.058;8.524;2023-05-10T09:19:29;1.97;;;1.20;;
12222;SDS011;6174;49.058;8.524;2023-05-10T09:21:56;3.00;;;1.17;;
12222;SDS011;6174;49.058;8.524;2023-05-10T09:24:25;1.53;;;1.33;;
12222;SDS011;6174;49.058;8.524;2023-05-10T09:26:52;1.50;;;1.20;;
12222;SDS011;6174;49.058;8.524;2023-05-10T09:29:19;1.83;;;1.40;;
12222;SDS011;6174;49.058;8.524;2023-05-10T09:31:46;2.40;;;1.30;;
12222;SDS011;6174;49.058;8.524;2023-05-10T09:34:16;3.30;;;1.20;;
12222;SDS011;6174;49.058;8.524;2023-05-10T09:36:55;1.20;;;1.10;;
12222;SDS011;6174;49.058;8.524;2023-05-10T09:39:29;1.30;;;1.17;;
12222;SDS011;6174;49.058;8.524;2023-05-10T09:41:58;1.63;;;1.00;;
12222;SDS011;6174;49.058;8.524;2023-05-10T09:44:25;1.00;;;1.00;;
12222;SDS011;6174;49.058;8.524;2023-05-10T09:46:52;2.27;;;1.30;;
12222;SDS011;6174;49.058;8.524;2023-05-10T09:49:20;1.00;;;1.00;;
12222;SDS011;6174;49.058;8.524;2023-05-10T09:51:47;1.23;;;1.13;;
12222;SDS011;6174;49.058;8.524;2023-05-10T09:54:24;1.47;;;1.10;;
12222;SDS011;6174;49.058;8.524;2023-05-10T09:56:51;3.33;;;1.00;;
12222;SDS011;6174;49.058;8.524;2023-05-10T09:59:18;3.20;;;1.00;;
12222;SDS011;6174;49.058;8.524;2023-05-10T10:01:48;1.03;;;0.93;;
12222;SDS011;6174;49.058;8.524;2023-05-10T10:04:15;1.00;;;0.90;;
12222;SDS011;6174;49.058;8.524;2023-05-10T10:06:45;0.70;;;0.70;;
12222;SDS011;6174;49.058;8.524;2023-05-10T10:09:12;0.97;;;0.80;;
12222;SDS011;6174;49.058;8.524;2023-05-10T10:11:41;0.97;;;0.97;;
12222;SDS011;6174;49.058;8.524;2023-05-10T10:14:08;0.90;;;0.90;;
12222;SDS011;6174;49.058;8.524;2023-05-10T10:16:37;0.90;;;0.90;;
12222;SDS011;6174;49.058;8.524;2023-05-10T10:19:04;1.20;;;1.10;;
12222;SDS011;6174;49.058;8.524;2023-05-10T10:21:32;1.27;;;1.17;;
12222;SDS011;6174;49.058;8.524;2023-05-10T10:23:59;1.07;;;0.80;;
12222;SDS011;6174;49.058;8.524;2023-05-10T10:26:25;1.70;;;1.10;;
12222;SDS011;6174;49.058;8.524;2023-05-10T10:28:57;1.10;;;1.00;;
12222;SDS011;6174;49.058;8.524;2023-05-10T10:31:34;1.17;;;1.00;;
12222;SDS011;6174;49.058;8.524;2023-05-10T10:34:05;2.53;;;1.20;;
12222;SDS011;6174;49.058;8.524;2023-05-10T10:36:39;3.60;;;1.03;;
12222;SDS011;6174;49.058;8.524;2023-05-10T10:39:08;1.27;;;1.10;;
12222;SDS011;6174;49.058;8.524;2023-05-10T10:41:37;1.43;;;1.00;;
12222;SDS011;6174;49.058;8.524;2023-05-10T10:47:08;0.83;;;0.83;;
12222;SDS011;6174;49.058;8.524;2023-05-10T10:49:50;1.97;;;1.27;;
12222;SDS011;6174;49.058;8.524;2023-05-10T10:52:21;1.93;;;1.20;;
12222;SDS011;6174;49.058;8.524;2023-05-10T10:54:52;3.63;;;1.23;;
12222;SDS011;6174;49.058;8.524;2023-05-10T10:57:20;1.90;;;1.40;;
12222;SDS011;6174;49.058;8.524;2023-05-10T10:59:49;1.90;;;1.70;;
12222;SDS011;6174;49.058;8.524;2023-05-10T11:05:23;2.20;;;1.90;;
12222;SDS011;6174;49.058;8.524;2023-05-10T11:08:12;4.50;;;1.90;;
12222;SDS011;6174;49.058;8.524;2023-05-10T11:10:49;2.93;;;1.70;;
12222;SDS011;6174;49.058;8.524;2023-05-10T11:13:21;2.70;;;2.10;;
12222;SDS011;6174;49.058;8.524;2023-05-10T11:15:55;2.00;;;1.90;;
12222;SDS011;6174;49.058;8.524;2023-05-10T11:18:24;3.37;;;1.93;;
12222;SDS011;6174;49.058;8.524;2023-05-10T11:20:52;2.77;;;2.30;;
12222;SDS011;6174;49.058;8.524;2023-05-10T11:23:22;2.20;;;1.73;;
12222;SDS011;6174;49.058;8.524;2023-05-10T11:25:49;1.90;;;1.80;;
12222;SDS011;6174;49.058;8.524;2023-05-10T11:28:16;2.67;;;1.83;;
12222;SDS011;6174;49.058;8.524;2023-05-10T11:30:44;1.77;;;1.40;;
12222;SDS011;6174;49.058;8.524;2023-05-10T11:33:16;2.10;;;1.93;;
12222;SDS011;6174;49.058;8.524;2023-05-10T11:35:44;3.67;;;1.50;;
12222;SDS011;6174;49.058;8.524;2023-05-10T11:38:12;2.07;;;1.53;;
12222;SDS011;6174;49.058;8.524;2023-05-10T11:40:40;3.07;;;1.50;;
12222;SDS011;6174;49.058;8.524;2023-05-10T11:43:08;2.60;;;1.50;;
12222;SDS011;6174;49.058;8.524;2023-05-10T11:45:36;1.83;;;1.70;;
12222;SDS011;6174;49.058;8.524;2023-05-10T11:48:03;1.93;;;1.33;;
12222;SDS011;6174;49.058;8.524;2023-05-10T11:50:31;1.63;;;1.10;;
12222;SDS011;6174;49.058;8.524;2023-05-10T11:52:58;3.80;;;1.70;;
12222;SDS011;6174;49.058;8.524;2023-05-10T11:55:25;1.33;;;1.23;;
12222;SDS011;6174;49.058;8.524;2023-05-10T11:57:52;1.90;;;1.20;;
12222;SDS011;6174;49.058;8.524;2023-05-10T12:00:20;3.80;;;1.70;;
12222;SDS011;6174;49.058;8.524;2023-05-10T12:02:47;4.10;;;1.40;;
12222;SDS011;6174;49.058;8.524;2023-05-10T12:05:14;2.57;;;1.43;;
12222;SDS011;6174;49.058;8.524;2023-05-10T12:07:42;1.00;;;1.00;;
12222;SDS011;6174;49.058;8.524;2023-05-10T12:10:10;2.03;;;1.20;;
12222;SDS011;6174;49.058;8.524;2023-05-10T12:12:39;3.50;;;1.20;;
12222;SDS011;6174;49.058;8.524;2023-05-10T12:15:11;0.97;;;0.90;;
12222;SDS011;6174;49.058;8.524;2023-05-10T12:17:38;1.83;;;1.00;;
12222;SDS011;6174;49.058;8.524;2023-05-10T12:20:15;2.70;;;1.33;;
12222;SDS011;6174;49.058;8.524;2023-05-10T12:22:48;1.03;;;1.00;;
12222;SDS011;6174;49.058;8.524;2023-05-10T12:25:16;1.37;;;1.00;;
12222;SDS011;6174;49.058;8.524;2023-05-10T12:27:50;1.53;;;1.10;;
12222;SDS011;6174;49.058;8.524;2023-05-10T12:30:21;1.23;;;1.03;;
12222;SDS011;6174;49.058;8.524;2023-05-10T12:32:48;1.53;;;1.03;;
12222;SDS011;6174;49.058;8.524;2023-05-10T12:35:15;2.00;;;1.10;;
12222;SDS011;6174;49.058;8.524;2023-05-10T12:37:45;1.20;;;1.10;;
12222;SDS011;6174;49.058;8.524;2023-05-10T12:40:14;1.97;;;1.17;;
12222;SDS011;6174;49.058;8.524;2023-05-10T12:42:41;1.70;;;1.00;;
12222;SDS011;6174;49.058;8.524;2023-05-10T12:45:10;1.17;;;1.17;;
12222;SDS011;6174;49.058;8.524;2023-05-10T12:47:38;1.30;;;1.20;;
12222;SDS011;6174;49.058;8.524;2023-05-10T12:50:05;1.47;;;1.20;;
12222;SDS011;6174;49.058;8.524;2023-05-10T12:52:33;3.43;;;1.20;;
12222;SDS011;6174;49.058;8.524;2023-05-10T12:55:01;1.90;;;1.00;;
12222;SDS011;6174;49.058;8.524;2023-05-10T12:57:28;0.87;;;0.87;;
12222;SDS011;6174;49.058;8.524;2023-05-10T12:59:55;2.53;;;1.30;;
12222;SDS011;6174;49.058;8.524;2023-05-10T13:02:22;1.83;;;1.13;;
12222;SDS011;6174;49.058;8.524;2023-05-10T13:04:49;1.37;;;1.20;;
12222;SDS011;6174;49.058;8.524;2023-05-10T13:07:16;1.27;;;1.17;;
12222;SDS011;6174;49.058;8.524;2023-05-10T13:09:43;1.47;;;1.10;;
12222;SDS011;6174;49.058;8.524;2023-05-10T13:12:11;1.23;;;1.13;;
12222;SDS011;6174;49.058;8.524;2023-05-10T13:14:37;3.80;;;1.50;;
12222;SDS011;6174;49.058;8.524;2023-05-10T13:17:05;2.00;;;1.40;;
12222;SDS011;6174;49.058;8.524;2023-05-10T13:19:32;1.80;;;1.37;;
12222;SDS011;6174;49.058;8.524;2023-05-10T13:21:58;1.03;;;0.80;;
12222;SDS011;6174;49.058;8.524;2023-05-10T13:24:25;1.20;;;1.10;;
12222;SDS011;6174;49.058;8.524;2023-05-10T13:26:52;1.20;;;0.93;;
12222;SDS011;6174;49.058;8.524;2023-05-10T13:29:20;3.43;;;1.03;;
12222;SDS011;6174;49.058;8.524;2023-05-10T13:31:47;2.77;;;1.20;;
12222;SDS011;6174;49.058;8.524;2023-05-10T13:34:14;1.40;;;1.20;;
12222;SDS011;6174;49.058;8.524;2023-05-10T13:36:41;1.77;;;1.07;;
12222;SDS011;6174;49.058;8.524;2023-05-10T13:39:07;1.63;;;0.87;;
12222;SDS011;6174;49.058;8.524;2023-05-10T13:41:34;2.90;;;1.10;;
12222;SDS011;6174;49.058;8.524;2023-05-10T13:44:01;3.73;;;1.60;;
12222;SDS011;6174;49.058;8.524;2023-05-10T13:46:29;1.63;;;1.10;;
12222;SDS011;6174;49.058;8.524;2023-05-10T13:48:56;0.73;;;0.73;;
12222;SDS011;6174;49.058;8.524;2023-05-10T13:51:23;1.50;;;0.83;;
12222;SDS011;6174;49.058;8.524;2023-05-10T13:53:50;0.83;;;0.80;;
12222;SDS011;6174;49.058;8.524;2023-05-10T13:56:17;1.77;;;1.00;;
12222;SDS011;6174;49.058;8.524;2023-05-10T13:58:43;2.40;;;1.20;;
12222;SDS011;6174;49.058;8.524;2023-05-10T14:01:10;2.57;;;1.30;;
12222;SDS011;6174;49.058;8.524;2023-05-10T14:03:39;1.60;;;1.00;;
12222;SDS011;6174;49.058;8.524;2023-05-10T14:06:05;1.60;;;0.80;;
12222;SDS011;6174;49.058;8.524;2023-05-10T14:08:35;1.07;;;0.80;;
12222;SDS011;6174;49.058;8.524;2023-05-10T14:11:02;1.03;;;0.80;;
12222;SDS011;6174;49.058;8.524;2023-05-10T14:13:29;1.10;;;1.00;;
12222;SDS011;6174;49.058;8.524;2023-05-10T14:15:56;1.07;;;0.90;;
12222;SDS011;6174;49.058;8.524;2023-05-10T14:18:25;2.30;;;0.70;;
12222;SDS011;6174;49.058;8.524;2023-05-10T14:20:53;1.87;;;1.07;;
12222;SDS011;6174;49.058;8.524;2023-05-10T14:23:21;1.93;;;0.53;;
12222;SDS011;6174;49.058;8.524;2023-05-10T14:25:49;1.73;;;0.80;;
12222;SDS011;6174;49.058;8.524;2023-05-10T14:28:16;1.60;;;0.80;;
12222;SDS011;6174;49.058;8.524;2023-05-10T14:30:43;0.87;;;0.70;;
12222;SDS011;6174;49.058;8.524;2023-05-10T14:33:10;1.33;;;1.10;;
12222;SDS011;6174;49.058;8.524;2023-05-10T14:35:39;1.33;;;0.83;;
12222;SDS011;6174;49.058;8.524;2023-05-10T14:38:07;2.13;;;0.90;;
12222;SDS011;6174;49.058;8.524;2023-05-10T14:40:34;1.90;;;0.90;;
12222;SDS011;6174;49.058;8.524;2023-05-10T14:43:04;0.73;;;0.67;;
12222;SDS011;6174;49.058;8.524;2023-05-10T14:45:38;1.00;;;0.80;;
12222;SDS011;6174;49.058;8.524;2023-05-10T14:48:06;3.23;;;0.83;;
12222;SDS011;6174;49.058;8.524;2023-05-10T14:50:37;2.10;;;0.90;;
12222;SDS011;6174;49.058;8.524;2023-05-10T14:53:04;0.73;;;0.73;;
12222;SDS011;6174;49.058;8.524;2023-05-10T14:55:32;0.80;;;0.80;;
12222;SDS011;6174;49.058;8.524;2023-05-10T14:58:09;1.30;;;0.70;;
12222;SDS011;6174;49.058;8.524;2023-05-10T15:00:36;1.13;;;0.60;;
12222;SDS011;6174;49.058;8.524;2023-05-10T15:03:11;0.97;;;0.83;;
12222;SDS011;6174;49.058;8.524;2023-05-10T15:05:39;1.47;;;0.70;;
12222;SDS011;6174;49.058;8.524;2023-05-10T15:08:08;1.70;;;0.70;;
12222;SDS011;6174;49.058;8.524;2023-05-10T15:10:41;2.80;;;0.93;;
12222;SDS011;6174;49.058;8.524;2023-05-10T15:13:10;2.17;;;0.77;;
12222;SDS011;6174;49.058;8.524;2023-05-10T15:15:39;1.83;;;0.90;;
12222;SDS011;6174;49.058;8.524;2023-05-10T15:18:12;1.50;;;0.83;;
12222;SDS011;6174;49.058;8.524;2023-05-10T15:20:39;2.20;;;1.00;;
12222;SDS011;6174;49.058;8.524;2023-05-10T15:23:09;1.37;;;1.13;;
12222;SDS011;6174;49.058;8.524;2023-05-10T15:25:50;1.00;;;0.70;;
12222;SDS011;6174;49.058;8.524;2023-05-10T15:28:31;1.40;;;0.87;;
12222;SDS011;6174;49.058;8.524;2023-05-10T15:30:59;1.90;;;0.90;;
12222;SDS011;6174;49.058;8.524;2023-05-10T15:33:30;2.47;;;0.80;;
12222;SDS011;6174;49.058;8.524;2023-05-10T15:36:08;1.83;;;0.80;;
12222;SDS011;6174;49.058;8.524;2023-05-10T15:38:35;1.37;;;0.87;;
12222;SDS011;6174;49.058;8.524;2023-05-10T15:41:04;1.03;;;0.70;;
12222;SDS011;6174;49.058;8.524;2023-05-10T15:43:30;1.50;;;0.93;;
12222;SDS011;6174;49.058;8.524;2023-05-10T15:45:57;1.20;;;0.73;;
12222;SDS011;6174;49.058;8.524;2023-05-10T15:48:24;1.20;;;0.77;;
12222;SDS011;6174;49.058;8.524;2023-05-10T15:50:51;0.73;;;0.73;;
12222;SDS011;6174;49.058;8.524;2023-05-10T15:53:18;0.90;;;0.87;;
12222;SDS011;6174;49.058;8.524;2023-05-10T15:55:45;2.10;;;0.73;;
12222;SDS011;6174;49.058;8.524;2023-05-10T15:58:15;2.00;;;0.63;;
12222;SDS011;6174;49.058;8.524;2023-05-10T16:04:09;1.47;;;0.83;;
12222;SDS011;6174;49.058;8.524;2023-05-10T16:08:07;0.80;;;0.80;;
12222;SDS011;6174;49.058;8.524;2023-05-10T16:10:09;0.70;;;0.70;;
12222;SDS011;6174;49.058;8.524;2023-05-10T16:12:38;0.83;;;0.60;;
12222;SDS011;6174;49.058;8.524;2023-05-10T16:15:11;2.13;;;0.80;;
12222;SDS011;6174;49.058;8.524;2023-05-10T16:17:42;1.07;;;0.70;;
12222;SDS011;6174;49.058;8.524;2023-05-10T16:20:10;1.23;;;0.70;;
12222;SDS011;6174;49.058;8.524;2023-05-10T16:22:37;2.17;;;0.67;;
12222;SDS011;6174;49.058;8.524;2023-05-10T16:25:08;0.53;;;0.53;;
12222;SDS011;6174;49.058;8.524;2023-05-10T16:27:35;1.70;;;0.80;;
12222;SDS011;6174;49.058;8.524;2023-05-10T16:30:04;1.50;;;0.63;;
12222;SDS011;6174;49.058;8.524;2023-05-10T16:33:20;1.53;;;0.70;;
12222;SDS011;6174;49.058;8.524;2023-05-10T16:35:47;0.90;;;0.70;;
12222;SDS011;6174;49.058;8.524;2023-05-10T16:38:23;0.60;;;0.60;;
12222;SDS011;6174;49.058;8.524;2023-05-10T16:41:06;1.20;;;0.60;;
12222;SDS011;6174;49.058;8.524;2023-05-10T16:43:39;1.83;;;0.80;;
12222;SDS011;6174;49.058;8.524;2023-05-10T16:49:00;0.50;;;0.50;;
12222;SDS011;6174;49.058;8.524;2023-05-10T16:51:45;2.37;;;0.80;;
12222;SDS011;6174;49.058;8.524;2023-05-10T16:54:27;2.03;;;0.70;;
12222;SDS011;6174;49.058;8.524;2023-05-10T16:57:25;1.00;;;0.90;;
12222;SDS011;6174;49.058;8.524;2023-05-10T17:00:06;0.60;;;0.60;;
12222;SDS011;6174;49.058;8.524;2023-05-10T17:02:47;1.40;;;0.93;;
12222;SDS011;6174;49.058;8.524;2023-05-10T17:05:15;1.40;;;0.90;;
12222;SDS011;6174;49.058;8.524;2023-05-10T17:07:45;1.13;;;0.70;;
12222;SDS011;6174;49.058;8.524;2023-05-10T17:10:12;0.67;;;0.50;;
12222;SDS011;6174;49.058;8.524;2023-05-10T17:12:39;0.70;;;0.70;;
12222;SDS011;6174;49.058;8.524;2023-05-10T18:30:36;0.43;;;0.43;;
12222;SDS011;6174;49.058;8.524;2023-05-10T18:33:04;0.70;;;0.70;;
12222;SDS011;6174;49.058;8.524;2023-05-10T18:35:31;0.93;;;0.60;;
12222;SDS011;6174;49.058;8.524;2023-05-10T18:37:59;0.50;;;0.50;;
12222;SDS011;6174;49.058;8.524;2023-05-10T18:40:26;0.87;;;0.60;;
12222;SDS011;6174;49.058;8.524;2023-05-10T18:42:53;1.10;;;0.90;;
12222;SDS011;6174;49.058;8.524;2023-05-10T18:45:20;0.40;;;0.40;;
12222;SDS011;6174;49.058;8.524;2023-05-10T18:47:48;2.53;;;0.73;;
12222;SDS011;6174;49.058;8.524;2023-05-10T18:50:14;0.77;;;0.70;;
12222;SDS011;6174;49.058;8.524;2023-05-10T18:52:42;1.70;;;0.83;;
12222;SDS011;6174;49.058;8.524;2023-05-10T18:55:09;1.03;;;0.77;;
12222;SDS011;6174;49.058;8.524;2023-05-10T18:57:36;0.73;;;0.73;;
12222;SDS011;6174;49.058;8.524;2023-05-10T19:00:06;0.80;;;0.77;;
12222;SDS011;6174;49.058;8.524;2023-05-10T19:02:34;0.53;;;0.53;;
12222;SDS011;6174;49.058;8.524;2023-05-10T19:05:02;0.60;;;0.60;;
12222;SDS011;6174;49.058;8.524;2023-05-10T19:07:29;0.80;;;0.70;;
12222;SDS011;6174;49.058;8.524;2023-05-10T19:09:56;0.80;;;0.80;;
12222;SDS011;6174;49.058;8.524;2023-05-10T19:12:23;1.37;;;0.63;;
12222;SDS011;6174;49.058;8.524;2023-05-10T19:14:50;0.80;;;0.70;;
12222;SDS011;6174;49.058;8.524;2023-05-10T19:17:16;0.70;;;0.70;;
12222;SDS011;6174;49.058;8.524;2023-05-10T19:19:43;0.70;;;0.60;;
12222;SDS011;6174;49.058;8.524;2023-05-10T19:22:11;1.03;;;0.73;;
12222;SDS011;6174;49.058;8.524;2023-05-10T19:24:38;0.60;;;0.60;;
12222;SDS011;6174;49.058;8.524;2023-05-10T19:27:05;0.93;;;0.80;;
12222;SDS011;6174;49.058;8.524;2023-05-10T19:29:32;0.90;;;0.90;;
12222;SDS011;6174;49.058;8.524;2023-05-10T19:31:59;1.43;;;1.30;;
12222;SDS011;6174;49.058;8.524;2023-05-10T19:34:26;1.30;;;1.20;;
12222;SDS011;6174;49.058;8.524;2023-05-10T19:36:53;2.90;;;1.93;;
12222;SDS011;6174;49.058;8.524;2023-05-10T19:39:21;2.73;;;1.50;;
12222;SDS011;6174;49.058;8.524;2023-05-10T19:41:47;2.03;;;1.30;;
12222;SDS011;6174;49.058;8.524;2023-05-10T19:44:14;2.07;;;1.33;;
12222;SDS011;6174;49.058;8.524;2023-05-10T19:46:42;1.00;;;0.90;;
12222;SDS011;6174;49.058;8.524;2023-05-10T19:49:08;1.67;;;1.17;;
12222;SDS011;6174;49.058;8.524;2023-05-10T19:51:35;1.13;;;1.03;;
12222;SDS011;6174;49.058;8.524;2023-05-10T19:54:02;2.63;;;1.10;;
12222;SDS011;6174;49.058;8.524;2023-05-10T19:56:30;1.17;;;1.00;;
12222;SDS011;6174;49.058;8.524;2023-05-10T19:58:57;1.90;;;1.00;;
12222;SDS011;6174;49.058;8.524;2023-05-10T20:01:23;1.87;;;1.00;;
12222;SDS011;6174;49.058;8.524;2023-05-10T20:03:50;2.73;;;1.33;;
12222;SDS011;6174;49.058;8.524;2023-05-10T20:06:17;3.27;;;1.60;;
12222;SDS011;6174;49.058;8.524;2023-05-10T20:08:44;2.07;;;1.37;;
12222;SDS011;6174;49.058;8.524;2023-05-10T20:11:10;3.17;;;1.70;;
12222;SDS011;6174;49.058;8.524;2023-05-10T20:13:38;1.63;;;1.33;;
12222;SDS011;6174;49.058;8.524;2023-05-10T20:16:05;1.90;;;1.57;;
12222;SDS011;6174;49.058;8.524;2023-05-10T20:18:32;1.63;;;1.33;;
12222;SDS011;6174;49.058;8.524;2023-05-10T20:20:59;1.03;;;0.90;;
12222;SDS011;6174;49.058;8.524;2023-05-10T20:23:26;1.30;;;1.03;;
12222;SDS011;6174;49.058;8.524;2023-05-10T20:25:53;1.13;;;1.10;;
12222;SDS011;6174;49.058;8.524;2023-05-10T20:28:20;0.97;;;0.90;;
12222;SDS011;6174;49.058;8.524;2023-05-10T20:30:50;3.00;;;1.50;;
12222;SDS011;6174;49.058;8.524;2023-05-10T20:33:18;2.10;;;1.40;;
12222;SDS011;6174;49.058;8.524;2023-05-10T20:35:45;1.00;;;0.90;;
12222;SDS011;6174;49.058;8.524;2023-05-10T20:38:11;1.20;;;0.90;;
12222;SDS011;6174;49.058;8.524;2023-05-10T20:40:38;0.93;;;0.90;;
12222;SDS011;6174;49.058;8.524;2023-05-10T20:43:05;0.87;;;0.87;;
12222;SDS011;6174;49.058;8.524;2023-05-10T20:45:32;1.40;;;1.30;;
12222;SDS011;6174;49.058;8.524;2023-05-10T20:48:00;2.30;;;1.23;;
12222;SDS011;6174;49.058;8.524;2023-05-10T20:50:27;1.53;;;1.17;;
12222;SDS011;6174;49.058;8.524;2023-05-10T20:52:53;1.40;;;0.70;;
12222;SDS011;6174;49.058;8.524;2023-05-10T20:55:20;2.00;;;0.83;;
12222;SDS011;6174;49.058;8.524;2023-05-10T20:57:47;1.73;;;0.90;;
12222;SDS011;6174;49.058;8.524;2023-05-10T21:00:14;1.30;;;0.90;;
12222;SDS011;6174;49.058;8.524;2023-05-10T21:02:41;1.40;;;1.00;;
12222;SDS011;6174;49.058;8.524;2023-05-10T21:05:10;1.13;;;0.90;;
12222;SDS011;6174;49.058;8.524;2023-05-10T21:07:37;1.97;;;1.33;;
12222;SDS011;6174;49.058;8.524;2023-05-10T21:10:05;2.43;;;1.40;;
12222;SDS011;6174;49.058;8.524;2023-05-10T21:12:33;1.47;;;1.03;;
12222;SDS011;6174;49.058;8.524;2023-05-10T21:15:00;1.93;;;1.00;;
12222;SDS011;6174;49.058;8.524;2023-05-10T21:17:28;1.70;;;1.00;;
12222;SDS011;6174;49.058;8.524;2023-05-10T21:19:54;1.20;;;0.87;;
12222;SDS011;6174;49.058;8.524;2023-05-10T21:22:23;0.70;;;0.70;;
12222;SDS011;6174;49.058;8.524;2023-05-10T21:24:50;1.33;;;0.90;;
